Time;durP1;ratioP1;P1;durP2;ratioP2;P2;SDS_P1;SDS_P2;PMS_P1;PMS_P2;Temp;Humidity;BMP_temperature;BMP_pressure;BME280_temperature;BME280_humidity;BME280_pressure;Samples;Min_cycle;Max_cycle;Signal;HPM_P1;HPM_P2
2022/09/29 00:00:00;;;;;;;26.80;14.87;;;;;;;5.93;100.00;99094.41;7390416;19;20419;-57
2022/09/29 00:02:30;;;;;;;30.00;15.37;;;;;;;6.17;100.00;99093.53;7383120;19;20434;-54
2022/09/29 00:04:59;;;;;;;27.13;15.60;;;;;;;6.20;100.00;99088.47;7392418;19;20386;-54
2022/09/29 00:07:31;;;;;;;25.37;14.40;;;;;;;5.97;100.00;99088.59;7388819;19;20437;-52
2022/09/29 00:10:03;;;;;;;31.23;14.60;;;;;;;6.00;100.00;99080.13;7391065;19;20434;-58
2022/09/29 00:12:33;;;;;;;26.00;14.83;;;;;;;5.68;100.00;99081.66;7389203;19;20441;-54
2022/09/29 00:15:02;;;;;;;27.43;14.40;;;;;;;5.51;100.00;99086.19;7392267;19;20382;-55
2022/09/29 00:17:32;;;;;;;23.13;14.10;;;;;;;5.41;100.00;99096.91;7389213;19;20794;-52
2022/09/29 00:20:01;;;;;;;34.30;16.47;;;;;;;5.26;100.00;99105.75;7389677;19;20429;-60
2022/09/29 00:22:31;;;;;;;33.80;16.30;;;;;;;5.12;100.00;99104.34;7396523;19;20405;-54
2022/09/29 00:25:03;;;;;;;27.40;14.67;;;;;;;5.07;100.00;99108.47;7399593;19;20409;-59
2022/09/29 00:27:32;;;;;;;31.33;15.30;;;;;;;4.98;100.00;99120.06;7396539;19;20412;-60
2022/09/29 00:30:02;;;;;;;27.20;13.97;;;;;;;4.97;100.00;99118.31;7397316;19;20415;-56
2022/09/29 00:32:31;;;;;;;30.70;17.43;;;;;;;4.95;100.00;99129.28;7396009;19;20524;-54
2022/09/29 00:35:01;;;;;;;28.80;14.70;;;;;;;4.95;100.00;99116.50;7398951;19;20913;-60
2022/09/29 00:37:30;;;;;;;26.80;14.70;;;;;;;4.94;100.00;99118.22;7395164;19;20953;-58
2022/09/29 00:40:00;;;;;;;27.93;14.70;;;;;;;4.95;100.00;99114.84;7397316;19;20419;-59
2022/09/29 00:42:32;;;;;;;31.97;16.10;;;;;;;4.99;100.00;99116.69;7395032;19;20418;-55
2022/09/29 00:45:21;;;;;;;30.20;15.23;;;;;;;5.01;100.00;99109.06;7398728;19;20388;-55
2022/09/29 00:47:56;;;;;;;26.93;15.37;;;;;;;5.02;100.00;99107.41;7395844;19;20415;-60
2022/09/29 00:50:30;;;;;;;27.23;14.87;;;;;;;5.00;100.00;99097.13;7396297;19;20434;-57
2022/09/29 00:53:01;;;;;;;28.23;15.67;;;;;;;5.00;100.00;99092.88;7395239;19;20449;-56
2022/09/29 00:55:33;;;;;;;28.30;15.43;;;;;;;5.02;100.00;99084.41;7398629;19;20732;-57
2022/09/29 00:58:08;;;;;;;27.13;15.00;;;;;;;5.01;100.00;99078.41;7397232;19;20448;-58
2022/09/29 01:00:38;;;;;;;36.13;15.63;;;;;;;4.97;100.00;99077.41;7392330;19;20443;-55
2022/09/29 01:03:11;;;;;;;28.57;16.30;;;;;;;5.16;100.00;99070.44;7397699;19;20379;-55
2022/09/29 01:05:45;;;;;;;32.37;16.07;;;;;;;5.45;100.00;99068.06;7394970;19;20391;-56
2022/09/29 01:08:17;;;;;;;36.83;17.70;;;;;;;5.33;100.00;99059.94;7397841;19;20384;-58
2022/09/29 01:10:49;;;;;;;30.53;15.17;;;;;;;5.14;100.00;99049.06;7393440;19;20804;-58
2022/09/29 01:13:21;;;;;;;31.93;14.93;;;;;;;5.13;100.00;99052.44;7397412;19;20407;-56
2022/09/29 01:15:51;;;;;;;38.83;17.67;;;;;;;4.97;100.00;99041.63;7395537;19;20380;-54
2022/09/29 01:18:20;;;;;;;31.73;16.30;;;;;;;4.91;100.00;99041.41;7396931;19;20381;-47
2022/09/29 01:20:54;;;;;;;31.27;16.57;;;;;;;4.90;100.00;99037.13;7392432;19;20981;-55
2022/09/29 01:23:45;;;;;;;32.73;15.60;;;;;;;4.82;100.00;99041.06;7397229;19;20407;-52
2022/09/29 01:26:42;;;;;;;32.90;18.17;;;;;;;4.83;100.00;99035.16;7387933;19;20462;-55
2022/09/29 01:29:31;;;;;;;33.53;16.37;;;;;;;4.88;100.00;99035.31;7396157;19;20379;-54
2022/09/29 01:32:11;;;;;;;31.80;16.53;;;;;;;4.84;100.00;99036.88;7393734;19;20423;-57
2022/09/29 01:34:46;;;;;;;37.17;17.60;;;;;;;4.85;100.00;99039.50;7397083;19;20403;-54
2022/09/29 01:37:18;;;;;;;31.50;17.60;;;;;;;4.99;100.00;99037.44;7394964;19;20446;-57
2022/09/29 01:39:54;;;;;;;33.60;17.73;;;;;;;5.13;100.00;99031.97;7395752;19;20419;-55
2022/09/29 01:42:28;;;;;;;33.47;17.40;;;;;;;5.67;100.00;99017.63;7393332;19;20945;-59
2022/09/29 01:45:07;;;;;;;29.93;16.27;;;;;;;5.72;100.00;99000.72;7396735;19;20739;-58
2022/09/29 01:47:42;;;;;;;25.60;14.30;;;;;;;5.36;100.00;98988.44;7394000;19;20571;-53
2022/09/29 01:50:16;;;;;;;23.80;13.20;;;;;;;5.12;100.00;98987.63;7396316;19;20419;-59
2022/09/29 01:52:50;;;;;;;24.73;13.80;;;;;;;4.96;100.00;98987.88;7393500;19;20419;-59
2022/09/29 01:55:22;;;;;;;24.53;13.63;;;;;;;4.93;100.00;98995.47;7396318;19;20406;-54
2022/09/29 01:57:54;;;;;;;23.77;13.70;;;;;;;4.90;100.00;98995.34;7392852;19;20412;-49
2022/09/29 02:00:30;;;;;;;26.07;14.80;;;;;;;4.81;100.00;99006.97;7394056;19;20436;-58
2022/09/29 02:03:07;;;;;;;24.27;14.00;;;;;;;4.72;100.00;98998.97;7392656;19;20424;-58
2022/09/29 02:05:40;;;;;;;22.17;12.43;;;;;;;4.68;100.00;99003.06;7393609;19;20399;-53
2022/09/29 02:08:13;;;;;;;34.83;18.30;;;;;;;4.69;100.00;99015.06;7395658;19;20404;-59
2022/09/29 02:10:48;;;;;;;32.00;17.30;;;;;;;4.72;100.00;99032.19;7390897;19;20407;-56
2022/09/29 02:13:18;;;;;;;32.90;16.73;;;;;;;4.67;100.00;99037.09;7397211;19;20768;-60
2022/09/29 02:15:50;;;;;;;30.30;16.50;;;;;;;4.59;100.00;99039.41;7392468;19;20366;-60
2022/09/29 02:18:24;;;;;;;25.37;14.67;;;;;;;4.61;100.00;99036.88;7395009;19;20394;-57
2022/09/29 02:20:54;;;;;;;22.80;13.40;;;;;;;4.61;100.00;99030.91;7391047;19;20454;-55
2022/09/29 02:23:23;;;;;;;26.90;14.50;;;;;;;4.61;100.00;99029.22;7397327;19;20396;-56
2022/09/29 02:25:53;;;;;;;29.93;14.50;;;;;;;4.64;100.00;99026.78;7392609;19;20911;-54
2022/09/29 02:28:23;;;;;;;28.43;15.23;;;;;;;4.66;100.00;99026.84;7395020;19;20394;-58
2022/09/29 02:30:53;;;;;;;27.23;15.07;;;;;;;4.66;100.00;99025.16;7391220;19;20424;-54
2022/09/29 02:33:26;;;;;;;31.03;16.10;;;;;;;4.64;100.00;99021.69;7395044;19;20427;-59
2022/09/29 02:36:01;;;;;;;33.03;18.10;;;;;;;4.61;100.00;99031.75;7391722;19;20493;-58
2022/09/29 02:38:40;;;;;;;25.93;15.13;;;;;;;4.55;100.00;99049.41;7394777;19;20411;-63
2022/09/29 02:41:17;;;;;;;26.87;15.13;;;;;;;4.51;100.00;99045.03;7388386;19;20411;-58
2022/09/29 02:44:00;;;;;;;30.00;15.43;;;;;;;4.54;100.00;99047.69;7395012;19;20399;-55
2022/09/29 02:46:40;;;;;;;26.03;14.83;;;;;;;4.56;100.00;99054.59;7391586;19;20403;-60
2022/09/29 02:49:26;;;;;;;29.53;14.53;;;;;;;4.53;100.00;99049.38;7394123;19;20414;-59
2022/09/29 02:51:59;;;;;;;28.10;15.13;;;;;;;4.53;100.00;99043.38;7391982;19;20411;-55
2022/09/29 02:54:38;;;;;;;27.13;15.63;;;;;;;4.51;100.00;99045.03;7397491;19;20407;-60
2022/09/29 02:57:16;;;;;;;30.13;15.40;;;;;;;4.50;100.00;99041.56;7391934;19;20407;-57
2022/09/29 02:59:53;;;;;;;32.43;16.20;;;;;;;4.53;100.00;99033.16;7393558;19;20756;-60
2022/09/29 03:02:26;;;;;;;30.93;15.90;;;;;;;4.49;100.00;99032.19;7390053;19;21039;-56
2022/09/29 03:04:58;;;;;;;28.70;14.17;;;;;;;4.46;100.00;99042.25;7394260;19;20371;-55
2022/09/29 03:07:28;;;;;;;27.40;15.50;;;;;;;4.50;100.00;99038.16;7391154;19;20419;-55
2022/09/29 03:09:57;;;;;;;29.27;15.70;;;;;;;4.49;100.00;99031.28;7392914;19;20419;-54
2022/09/29 03:12:26;;;;;;;27.53;13.80;;;;;;;4.40;100.00;99022.47;7391146;19;20424;-56
2022/09/29 03:14:56;;;;;;;33.87;17.97;;;;;;;4.42;100.00;99025.94;7393809;19;20384;-57
2022/09/29 03:17:25;;;;;;;24.07;14.70;;;;;;;4.36;100.00;99018.06;7391139;19;20946;-60
2022/09/29 03:19:57;;;;;;;28.63;14.13;;;;;;;4.35;100.00;99016.31;7392602;19;20444;-50
2022/09/29 03:22:27;;;;;;;27.80;13.47;;;;;;;4.38;100.00;99011.34;7389666;19;20941;-61
2022/09/29 03:24:56;;;;;;;29.40;16.17;;;;;;;4.37;100.00;99014.72;7393463;19;20388;-52
2022/09/29 03:27:26;;;;;;;30.17;13.43;;;;;;;4.39;100.00;99010.53;7390012;19;20411;-55
2022/09/29 03:29:55;;;;;;;30.17;15.53;;;;;;;4.37;100.00;99012.16;7392297;19;20766;-52
2022/09/29 03:32:24;;;;;;;38.53;16.93;;;;;;;4.35;100.00;99003.53;7390449;19;20430;-59
2022/09/29 03:34:54;;;;;;;29.47;15.90;;;;;;;4.31;100.00;98996.59;7393131;19;20391;-61
2022/09/29 03:37:26;;;;;;;27.07;14.40;;;;;;;4.32;100.00;98993.22;7389753;19;20419;-57
2022/09/29 03:39:55;;;;;;;27.40;15.50;;;;;;;4.38;100.00;98983.25;7392164;19;20412;-52
2022/09/29 03:42:27;;;;;;;27.60;14.40;;;;;;;4.35;100.00;98980.56;7388114;19;20435;-56
2022/09/29 03:44:56;;;;;;;32.13;15.83;;;;;;;4.30;100.00;98977.84;7393069;19;20752;-62
2022/09/29 03:47:26;;;;;;;26.10;13.70;;;;;;;4.35;100.00;98974.59;7389655;19;20420;-54
2022/09/29 03:49:55;;;;;;;29.23;14.90;;;;;;;4.34;100.00;98971.16;7391791;19;20407;-56
2022/09/29 03:52:27;;;;;;;26.70;14.10;;;;;;;4.36;100.00;98969.53;7389983;19;20420;-54
2022/09/29 03:54:56;;;;;;;29.70;15.20;;;;;;;4.34;100.00;98963.50;7402349;19;20396;-54
2022/09/29 03:57:26;;;;;;;29.40;15.23;;;;;;;4.33;100.00;98966.88;7396884;19;20402;-54
2022/09/29 03:59:56;;;;;;;25.70;14.20;;;;;;;4.32;100.00;98967.69;7398697;19;20969;-59
2022/09/29 04:02:25;;;;;;;30.80;15.10;;;;;;;4.33;100.00;98974.53;7393556;19;20418;-56
2022/09/29 04:04:55;;;;;;;28.13;15.37;;;;;;;4.33;100.00;98971.97;7400111;19;20379;-52
2022/09/29 04:07:27;;;;;;;31.90;15.80;;;;;;;4.33;100.00;98979.66;7396797;19;20411;-55
2022/09/29 04:09:56;;;;;;;32.17;15.60;;;;;;;4.31;100.00;98981.28;7398713;19;20403;-59
2022/09/29 04:12:25;;;;;;;30.20;14.87;;;;;;;4.32;100.00;98983.00;7397047;19;20427;-56
2022/09/29 04:14:55;;;;;;;30.67;15.60;;;;;;;4.32;100.00;98977.91;7399700;19;20386;-53
2022/09/29 04:17:25;;;;;;;32.23;14.03;;;;;;;4.28;100.00;98982.03;7396762;19;20439;-53
2022/09/29 04:19:54;;;;;;;35.27;15.50;;;;;;;4.24;100.00;98981.81;7399498;19;20460;-55
2022/09/29 04:22:26;;;;;;;31.33;16.00;;;;;;;4.25;100.00;98978.50;7397294;19;20443;-53
2022/09/29 04:24:57;;;;;;;35.43;16.80;;;;;;;4.30;100.00;98979.50;7401851;19;20384;-53
2022/09/29 04:27:26;;;;;;;30.97;16.73;;;;;;;4.25;100.00;98970.81;7396254;19;20455;-54
2022/09/29 04:29:56;;;;;;;35.10;16.97;;;;;;;4.27;100.00;98969.19;7401172;19;20790;-54
2022/09/29 04:32:25;;;;;;;44.50;17.77;;;;;;;4.28;100.00;98971.81;7399843;19;20439;-56
2022/09/29 04:34:55;;;;;;;32.40;17.60;;;;;;;4.30;100.00;98974.41;7403072;19;20395;-57
2022/09/29 04:37:27;;;;;;;30.53;16.13;;;;;;;4.30;100.00;98979.50;7394992;19;20442;-52
2022/09/29 04:39:56;;;;;;;30.53;16.87;;;;;;;4.30;100.00;98974.41;7397646;19;20419;-55
2022/09/29 04:42:25;;;;;;;35.57;16.47;;;;;;;4.29;100.00;98972.66;7394707;19;20450;-59
2022/09/29 04:44:55;;;;;;;29.00;15.60;;;;;;;4.24;100.00;98972.50;7398717;19;20706;-53
2022/09/29 04:47:24;;;;;;;36.83;17.10;;;;;;;4.25;100.00;98970.81;7394796;19;20772;-58
2022/09/29 04:49:54;;;;;;;31.10;17.20;;;;;;;4.26;100.00;98978.53;7397393;19;20421;-57
2022/09/29 04:52:23;;;;;;;33.67;16.33;;;;;;;4.29;100.00;98977.78;7395166;19;20418;-52
2022/09/29 04:54:55;;;;;;;37.10;17.33;;;;;;;4.28;100.00;98991.34;7400628;19;20391;-49
2022/09/29 04:57:24;;;;;;;38.50;16.30;;;;;;;4.25;100.00;98986.16;7395495;19;20479;-54
2022/09/29 04:59:54;;;;;;;36.13;16.73;;;;;;;4.24;100.00;98989.50;7396936;19;20411;-59
2022/09/29 05:02:24;;;;;;;31.73;16.00;;;;;;;4.23;100.00;99003.06;7393496;19;20437;-56
2022/09/29 05:04:53;;;;;;;38.77;18.77;;;;;;;4.29;100.00;99004.19;7396405;19;20372;-56
2022/09/29 05:07:23;;;;;;;30.97;16.73;;;;;;;4.30;100.00;99013.59;7395001;19;20431;-56
2022/09/29 05:09:55;;;;;;;31.10;16.97;;;;;;;4.30;100.00;99478.34;7396435;19;20962;-54
2022/09/29 05:12:24;;;;;;;35.67;16.87;;;;;;;4.37;100.00;99589.34;7394421;19;20981;-53
2022/09/29 05:14:54;;;;;;;35.20;18.23;;;;;;;4.36;100.00;99586.69;7397746;19;20407;-56
2022/09/29 05:17:23;;;;;;;35.97;17.27;;;;;;;4.37;100.00;99579.13;7394113;19;20415;-54
2022/09/29 05:19:52;;;;;;;36.13;18.17;;;;;;;4.40;100.00;99580.91;7395965;19;20434;-57
2022/09/29 05:22:23;;;;;;;36.70;19.13;;;;;;;4.39;100.00;99579.16;7393012;19;20454;-50
2022/09/29 05:24:55;;;;;;;38.67;20.10;;;;;;;4.38;100.00;99572.31;7397570;19;20395;-57
2022/09/29 05:27:24;;;;;;;37.47;18.30;;;;;;;4.41;100.00;99570.78;7394063;19;20439;-61
2022/09/29 05:29:54;;;;;;;50.33;20.57;;;;;;;4.44;100.00;99570.94;7395724;19;20408;-56
2022/09/29 05:32:23;;;;;;;38.90;19.67;;;;;;;4.48;100.00;99566.84;7393563;19;20446;-58
2022/09/29 05:34:53;;;;;;;43.33;20.03;;;;;;;4.53;100.00;99564.50;7397073;19;20387;-60
2022/09/29 05:37:22;;;;;;;39.97;19.70;;;;;;;4.49;100.00;99552.38;7393866;19;20419;-57
2022/09/29 05:39:54;;;;;;;39.03;19.87;;;;;;;4.48;100.00;99551.53;7395668;19;20445;-50
2022/09/29 05:42:24;;;;;;;45.63;17.67;;;;;;;4.50;100.00;99556.72;7393521;19;20799;-59
2022/09/29 05:44:53;;;;;;;39.30;20.30;;;;;;;4.52;100.00;99555.94;7396919;19;20388;-57
2022/09/29 05:47:23;;;;;;;40.40;21.23;;;;;;;4.52;100.00;99545.72;7393412;19;20411;-60
2022/09/29 05:49:52;;;;;;;45.03;19.63;;;;;;;4.54;100.00;99543.25;7397167;19;20419;-54
2022/09/29 05:52:22;;;;;;;41.77;19.90;;;;;;;4.55;100.00;99547.56;7393394;19;20411;-60
2022/09/29 05:54:52;;;;;;;42.10;18.33;;;;;;;4.55;100.00;99552.66;7396227;19;20378;-55
2022/09/29 05:57:24;;;;;;;36.80;19.60;;;;;;;4.57;100.00;99559.59;7393591;19;20411;-58
2022/09/29 05:59:54;;;;;;;39.23;20.70;;;;;;;4.60;100.00;99553.75;7394680;19;20966;-55
2022/09/29 06:02:24;;;;;;;39.03;20.37;;;;;;;4.62;100.00;99556.41;7392154;19;20427;-49
2022/09/29 06:04:53;;;;;;;36.17;18.10;;;;;;;4.64;100.00;99554.78;7396030;19;20380;-56
2022/09/29 06:07:23;;;;;;;48.60;21.77;;;;;;;4.65;100.00;99549.75;7392573;19;20438;-49
2022/09/29 06:09:52;;;;;;;37.53;19.77;;;;;;;4.67;100.00;99552.38;7394481;19;20443;-52
2022/09/29 06:12:24;;;;;;;43.03;21.97;;;;;;;4.68;100.00;99554.97;7392580;19;20411;-54
2022/09/29 06:14:53;;;;;;;41.83;21.50;;;;;;;4.73;100.00;99545.00;7398348;19;20412;-57
2022/09/29 06:17:23;;;;;;;44.73;19.77;;;;;;;4.75;100.00;99537.38;7392417;19;20757;-54
2022/09/29 06:19:52;;;;;;;42.83;21.93;;;;;;;4.76;100.00;99542.56;7394507;19;20402;-54
2022/09/29 06:22:21;;;;;;;41.30;21.37;;;;;;;4.80;100.00;99539.34;7391633;19;20418;-52
2022/09/29 06:24:51;;;;;;;42.00;22.83;;;;;;;4.83;100.00;99528.41;7395520;19;20384;-57
2022/09/29 06:27:20;;;;;;;43.70;23.00;;;;;;;4.86;100.00;99533.63;7392505;19;20399;-50
2022/09/29 06:29:52;;;;;;;48.17;22.87;;;;;;;4.88;100.00;99515.81;7393635;19;20428;-57
2022/09/29 06:32:22;;;;;;;43.87;21.67;;;;;;;4.92;100.00;99521.13;7391243;19;20407;-54
2022/09/29 06:37:38;;;;;;;42.17;21.97;;;;;;;5.05;100.00;99509.78;7391150;19;20407;-55
2022/09/29 06:40:10;;;;;;;52.93;21.90;;;;;;;5.07;100.00;99504.75;7393244;19;20434;-52
2022/09/29 06:42:40;;;;;;;40.90;22.17;;;;;;;5.10;100.00;99504.84;7391436;19;20423;-56
2022/09/29 06:45:12;;;;;;;42.60;22.50;;;;;;;5.14;100.00;99488.84;7394509;19;20387;-54
2022/09/29 06:47:42;;;;;;;43.17;22.03;;;;;;;5.19;100.00;99492.50;7391688;19;20418;-50
2022/09/29 06:50:11;;;;;;;45.50;23.97;;;;;;;5.21;100.00;99480.63;7392667;19;20513;-58
2022/09/29 06:52:49;;;;;;;44.17;22.20;;;;;;;5.25;100.00;99467.19;7391576;19;20409;-57
2022/09/29 06:55:31;;;;;;;47.97;21.83;;;;;;;5.31;100.00;99470.78;7394417;19;20423;-58
2022/09/29 06:58:01;;;;;;;48.13;23.90;;;;;;;5.36;100.00;99474.41;7393133;19;20422;-58
2022/09/29 07:00:36;;;;;;;51.10;23.97;;;;;;;5.38;100.00;99462.56;7396945;19;20950;-52
2022/09/29 07:03:05;;;;;;;50.90;26.10;;;;;;;5.44;100.00;99459.41;7392949;19;20429;-50
2022/09/29 07:05:36;;;;;;;49.47;23.03;;;;;;;5.49;100.00;99463.88;7394156;19;20376;-59
2022/09/29 07:08:05;;;;;;;42.53;22.90;;;;;;;5.52;100.00;99441.00;7393107;19;20443;-58
2022/09/29 07:10:35;;;;;;;47.40;24.20;;;;;;;5.54;100.00;99439.38;7392493;19;20784;-54
2022/09/29 07:13:04;;;;;;;43.77;22.37;;;;;;;5.62;100.00;99442.25;7393306;19;20423;-55
2022/09/29 07:15:36;;;;;;;44.07;23.33;;;;;;;5.64;100.00;99430.38;7393587;19;20399;-52
2022/09/29 07:18:06;;;;;;;42.30;22.93;;;;;;;5.70;100.00;99423.75;7392851;19;20427;-54
2022/09/29 07:20:38;;;;;;;43.63;22.73;;;;;;;5.77;100.00;99423.19;7389396;19;20419;-60
2022/09/29 07:23:08;;;;;;;44.30;22.90;;;;;;;5.83;100.00;99404.66;7392538;19;20399;-57
2022/09/29 07:25:37;;;;;;;45.20;21.67;;;;;;;5.86;100.00;99394.53;7391435;19;20399;-50
2022/09/29 07:28:20;;;;;;;39.83;22.70;;;;;;;5.94;100.00;99388.00;7391719;19;20388;-58
2022/09/29 07:31:00;;;;;;;47.47;23.00;;;;;;;5.98;100.00;99369.41;7389475;19;20413;-57
2022/09/29 07:33:42;;;;;;;42.80;22.80;;;;;;;6.08;100.00;99360.41;7393350;19;20388;-58
2022/09/29 07:36:12;;;;;;;41.67;20.47;;;;;;;6.10;100.00;99353.63;7389847;19;20416;-53
2022/09/29 07:38:42;;;;;;;45.23;23.97;;;;;;;6.20;100.00;99348.06;7393180;19;20392;-53
2022/09/29 07:41:12;;;;;;;45.77;23.63;;;;;;;6.26;100.00;99344.84;7388476;19;20442;-59
2022/09/29 07:43:42;;;;;;;40.07;22.43;;;;;;;6.26;100.00;99318.38;7392359;19;20385;-55
2022/09/29 07:46:14;;;;;;;38.17;21.40;;;;;;;6.36;100.00;99310.16;7389577;19;20408;-52
2022/09/29 07:48:44;;;;;;;39.90;22.77;;;;;;;6.39;100.00;99294.91;7394817;19;20403;-57
2022/09/29 07:51:16;;;;;;;42.07;21.77;;;;;;;6.48;100.00;99282.41;7390528;19;20451;-51
2022/09/29 07:53:46;;;;;;;42.73;22.57;;;;;;;6.50;100.00;99272.22;7396911;19;20462;-60
2022/09/29 07:56:17;;;;;;;41.53;23.37;;;;;;;6.54;100.00;99279.22;7391886;19;21332;-51
2022/09/29 07:58:48;;;;;;;50.00;23.80;;;;;;;6.53;100.00;99269.78;7396762;19;20393;-56
2022/09/29 08:01:21;;;;;;;49.63;23.33;;;;;;;6.56;100.00;99264.75;7390099;19;21002;-53
2022/09/29 08:03:52;;;;;;;39.93;22.07;;;;;;;6.66;100.00;99262.50;7389485;19;20786;-59
2022/09/29 08:06:21;;;;;;;39.83;21.10;;;;;;;6.64;100.00;99248.75;7389917;19;21009;-55
2022/09/29 08:08:51;;;;;;;34.30;20.20;;;;;;;6.67;100.00;99238.63;7391927;19;20452;-54
2022/09/29 08:11:34;;;;;;;33.73;20.10;;;;;;;6.71;100.00;99230.19;7388215;19;20440;-53
2022/09/29 08:14:03;;;;;;;33.80;20.17;;;;;;;6.83;100.00;99245.13;7391364;19;20380;-59
2022/09/29 08:16:35;;;;;;;33.50;20.07;;;;;;;6.85;100.00;99240.91;7388208;19;20421;-56
2022/09/29 08:19:06;;;;;;;35.47;19.67;;;;;;;6.95;100.00;99232.69;7395741;19;20801;-55
2022/09/29 08:21:36;;;;;;;30.67;18.97;;;;;;;7.01;100.00;99232.00;7388628;19;20982;-54
2022/09/29 08:24:06;;;;;;;29.10;17.80;;;;;;;7.03;100.00;99238.94;7390367;19;20408;-54
2022/09/29 08:26:37;;;;;;;31.33;18.40;;;;;;;7.03;100.00;99233.81;7388703;19;20430;-51
2022/09/29 08:29:12;;;;;;;33.10;18.50;;;;;;;7.16;100.00;99229.06;7390662;19;20386;-58
2022/09/29 08:31:48;;;;;;;30.60;17.87;;;;;;;7.23;100.00;99231.00;7389314;19;20453;-50
2022/09/29 08:34:18;;;;;;;28.80;18.13;;;;;;;7.19;100.00;99239.44;7391003;19;20388;-53
2022/09/29 08:36:48;;;;;;;28.40;16.23;;;;;;;7.16;100.00;99240.22;7389823;19;20441;-51
2022/09/29 08:39:18;;;;;;;30.60;17.90;;;;;;;7.31;100.00;99249.19;7390273;19;20405;-55
2022/09/29 08:41:52;;;;;;;29.70;18.10;;;;;;;7.37;100.00;99243.38;7395497;19;20440;-56
2022/09/29 08:44:28;;;;;;;28.33;18.40;;;;;;;7.49;100.00;99235.19;7396799;19;20399;-57
2022/09/29 08:47:17;;;;;;;30.37;18.60;;;;;;;7.54;100.00;99223.38;7395876;19;20436;-54
2022/09/29 08:49:49;;;;;;;29.47;17.97;;;;;;;7.60;100.00;99226.13;7397004;19;20768;-56
2022/09/29 08:52:22;;;;;;;30.23;17.47;;;;;;;7.57;100.00;99221.75;7394759;19;20824;-52
2022/09/29 08:54:54;;;;;;;30.00;17.57;;;;;;;7.61;100.00;99214.13;7397865;19;20392;-51
2022/09/29 08:57:24;;;;;;;30.47;18.70;;;;;;;7.62;100.00;99196.22;7395030;19;20435;-54
2022/09/29 08:59:56;;;;;;;32.73;19.17;;;;;;;7.71;100.00;99172.50;7396148;19;20411;-55
2022/09/29 09:02:44;;;;;;;29.33;17.97;;;;;;;7.73;100.00;99137.47;7395384;19;20407;-52
2022/09/29 09:05:30;;;;;;;32.10;18.43;;;;;;;7.79;100.00;99100.84;7396023;19;20902;-54
2022/09/29 09:08:04;;;;;;;30.80;17.40;;;;;;;7.86;100.00;99097.59;7398632;19;20468;-54
2022/09/29 09:10:41;;;;;;;26.50;17.00;;;;;;;7.81;100.00;99081.19;7396334;19;20441;-56
2022/09/29 09:13:21;;;;;;;31.37;18.50;;;;;;;7.87;100.00;99059.94;7396866;19;20419;-56
2022/09/29 09:16:00;;;;;;;26.53;16.93;;;;;;;7.93;100.00;99040.41;7395275;19;20374;-60
2022/09/29 09:18:53;;;;;;;26.47;17.53;;;;;;;8.09;100.00;99025.38;7397405;19;20389;-58
2022/09/29 09:21:28;;;;;;;33.30;16.60;;;;;;;8.06;100.00;99015.88;7392098;19;21316;-59
2022/09/29 09:23:59;;;;;;;26.87;16.57;;;;;;;8.08;100.00;99021.06;7397119;19;20391;-58
2022/09/29 09:26:34;;;;;;;24.20;16.07;;;;;;;8.21;100.00;99015.38;7393959;19;20411;-53
2022/09/29 09:29:06;;;;;;;28.23;16.60;;;;;;;8.32;100.00;99009.63;7396732;19;20395;-56
2022/09/29 09:31:41;;;;;;;26.20;15.93;;;;;;;8.40;100.00;99025.25;7392107;19;20458;-58
2022/09/29 09:34:18;;;;;;;26.87;15.80;;;;;;;8.43;100.00;99033.00;7396823;19;20406;-53
2022/09/29 09:36:53;;;;;;;22.97;15.50;;;;;;;8.53;100.00;99028.97;7393361;19;20407;-54
2022/09/29 09:39:38;;;;;;;23.23;15.07;;;;;;;8.64;100.00;99030.09;7395500;19;20777;-58
2022/09/29 09:42:14;;;;;;;23.50;14.53;;;;;;;8.63;100.00;99030.94;7393939;19;20430;-53
2022/09/29 09:44:47;;;;;;;19.53;13.30;;;;;;;8.84;100.00;99037.34;7397350;19;20396;-61
2022/09/29 09:47:25;;;;;;;21.67;13.97;;;;;;;8.91;100.00;99044.38;7393928;19;20909;-60
2022/09/29 09:50:00;;;;;;;21.10;12.90;;;;;;;8.97;100.00;99044.50;7395506;19;20407;-59
2022/09/29 09:52:33;;;;;;;20.97;12.60;;;;;;;9.07;100.00;99057.56;7393167;19;20450;-53
2022/09/29 09:55:06;;;;;;;17.73;12.60;;;;;;;9.21;100.00;99060.41;7396168;19;20387;-53
2022/09/29 09:58:02;;;;;;;20.90;13.43;;;;;;;9.29;100.00;99062.28;7394322;19;20447;-60
2022/09/29 10:00:34;;;;;;;22.10;11.97;;;;;;;9.42;100.00;99070.25;7393800;19;20399;-53
2022/09/29 10:03:06;;;;;;;16.70;11.80;;;;;;;9.48;100.00;99070.38;7398406;19;20498;-52
2022/09/29 10:05:40;;;;;;;14.87;10.30;;;;;;;9.31;100.00;99081.22;7394013;19;20415;-62
2022/09/29 10:08:14;;;;;;;15.67;10.10;;;;;;;9.31;100.00;99081.22;7395066;19;20391;-59
2022/09/29 10:10:44;;;;;;;13.83;10.00;;;;;;;9.39;100.00;99090.81;7391830;19;20419;-58
2022/09/29 10:13:29;;;;;;;18.00;10.57;;;;;;;9.37;100.00;99105.31;7395829;19;20376;-57
2022/09/29 10:16:01;;;;;;;14.23;10.03;;;;;;;9.50;100.00;99120.19;7396239;19;20860;-58
2022/09/29 10:18:33;;;;;;;15.70;10.53;;;;;;;9.55;100.00;99123.72;7395622;19;20415;-56
2022/09/29 10:21:05;;;;;;;14.00;9.70;;;;;;;9.50;100.00;99143.38;7390576;19;20758;-59
2022/09/29 10:23:37;;;;;;;13.37;9.10;;;;;;;9.40;100.00;99147.47;7395058;19;20387;-54
2022/09/29 10:26:11;;;;;;;13.00;9.40;;;;;;;9.47;100.00;99158.75;7391548;19;20442;-54
2022/09/29 10:28:44;;;;;;;13.63;9.30;;;;;;;9.47;100.00;99171.63;7394998;19;20375;-61
2022/09/29 10:31:22;;;;;;;29.63;10.83;;;;;;;9.47;100.00;99188.78;7389782;19;20455;-55
2022/09/29 10:33:56;;;;;;;14.57;9.20;;;;;;;9.49;100.00;99193.09;7395161;19;20419;-55
2022/09/29 10:36:30;;;;;;;18.63;11.77;;;;;;;9.50;100.00;99201.72;7391395;19;20407;-56
2022/09/29 10:39:00;;;;;;;13.33;9.50;;;;;;;9.57;100.00;99206.16;7394883;19;20395;-58
2022/09/29 10:41:35;;;;;;;14.90;10.70;;;;;;;9.48;100.00;99221.41;7390744;19;20823;-57
2022/09/29 10:44:22;;;;;;;17.50;11.73;;;;;;;9.53;100.00;99238.69;7394560;19;20403;-56
2022/09/29 10:46:55;;;;;;;15.87;10.73;;;;;;;9.46;100.00;99236.81;7390725;19;20415;-57
2022/09/29 10:49:27;;;;;;;15.70;10.43;;;;;;;9.44;100.00;99251.38;7393775;19;20391;-57
2022/09/29 10:52:02;;;;;;;17.90;11.80;;;;;;;9.46;100.00;99252.25;7391429;19;20399;-61
2022/09/29 10:54:40;;;;;;;14.20;10.57;;;;;;;9.43;100.00;99259.91;7393919;19;20399;-56
2022/09/29 10:57:14;;;;;;;20.20;11.10;;;;;;;9.51;100.00;99266.13;7390917;19;20418;-61
2022/09/29 10:59:49;;;;;;;25.57;13.37;;;;;;;9.53;100.00;99277.31;7393310;19;20415;-60
2022/09/29 11:02:24;;;;;;;16.97;11.50;;;;;;;9.39;100.00;99283.84;7389777;19;20443;-55
2022/09/29 11:04:54;;;;;;;16.03;10.80;;;;;;;9.39;100.00;99294.16;7393723;19;20397;-58
2022/09/29 11:07:26;;;;;;;19.80;12.43;;;;;;;9.40;100.00;99293.31;7392657;19;20403;-53
2022/09/29 11:09:56;;;;;;;20.50;10.83;;;;;;;9.56;100.00;99291.97;7391228;19;20415;-50
2022/09/29 11:12:35;;;;;;;17.80;10.93;;;;;;;9.41;100.00;99301.06;7397583;19;20395;-59
2022/09/29 11:15:24;;;;;;;17.60;11.97;;;;;;;9.41;100.00;99302.78;7390563;19;20434;-57
2022/09/29 11:17:54;;;;;;;19.77;12.60;;;;;;;9.39;100.00;99304.44;7393989;19;20376;-60
2022/09/29 11:20:27;;;;;;;17.53;11.00;;;;;;;9.35;100.00;99310.34;7388874;19;20438;-56
2022/09/29 11:23:16;;;;;;;19.60;11.70;;;;;;;9.43;100.00;99316.53;7393329;19;20910;-55
2022/09/29 11:25:56;;;;;;;15.93;10.73;;;;;;;9.55;100.00;99309.09;7389707;19;20411;-59
2022/09/29 11:28:41;;;;;;;16.97;10.73;;;;;;;9.55;100.00;99316.81;7393128;19;20376;-52
2022/09/29 11:31:22;;;;;;;20.20;12.70;;;;;;;9.53;100.00;99321.06;7388348;19;20426;-55
2022/09/29 11:34:04;;;;;;;18.73;10.40;;;;;;;9.53;100.00;99318.50;7388866;19;20432;-58
2022/09/29 11:36:41;;;;;;;15.93;11.47;;;;;;;9.56;100.00;99326.31;7392387;19;20392;-57
2022/09/29 11:39:25;;;;;;;15.83;10.50;;;;;;;9.51;100.00;99325.34;7388919;19;20415;-53
2022/09/29 11:42:12;;;;;;;14.70;9.90;;;;;;;9.50;100.00;99335.59;7393131;19;20750;-58
2022/09/29 11:45:03;;;;;;;15.50;9.90;;;;;;;9.51;100.00;99330.47;7389269;19;20942;-57